createdAt,value
2022-10-19T00:02:06.032Z,19.00
2022-10-19T00:04:56.164Z,19.00
2022-10-19T00:07:45.504Z,19.00
2022-10-19T00:10:36.470Z,19.00
2022-10-19T00:13:25.530Z,18.90
2022-10-19T00:16:16.594Z,18.90
2022-10-19T00:19:08.649Z,18.80
2022-10-19T00:21:57.467Z,18.80
2022-10-19T00:24:46.690Z,18.80
2022-10-19T00:27:38.158Z,18.70
2022-10-19T00:30:27.411Z,17.90
2022-10-19T00:33:21.381Z,18.50
2022-10-19T00:36:22.623Z,18.50
2022-10-19T00:39:15.777Z,18.50
2022-10-19T00:42:04.698Z,18.40
2022-10-19T00:45:06.372Z,18.40
2022-10-19T00:47:54.974Z,18.40
2022-10-19T00:50:45.074Z,18.40
2022-10-19T00:53:34.150Z,18.00
2022-10-19T00:56:23.689Z,17.80
2022-10-19T00:59:16.215Z,17.90
2022-10-19T01:02:07.811Z,17.90
2022-10-19T01:04:57.461Z,17.90
2022-10-19T01:07:47.073Z,17.80
2022-10-19T01:10:46.386Z,17.90
2022-10-19T01:13:43.851Z,17.80
2022-10-19T01:16:41.776Z,17.60
2022-10-19T01:19:50.617Z,17.70
2022-10-19T01:22:56.650Z,17.70
2022-10-19T01:25:56.029Z,17.80
2022-10-19T01:28:55.533Z,17.70
2022-10-19T01:31:50.474Z,17.80
2022-10-19T01:34:47.531Z,17.80
2022-10-19T01:37:42.731Z,18.00
2022-10-19T01:40:40.402Z,17.90
2022-10-19T01:43:38.503Z,17.90
2022-10-19T01:46:31.911Z,17.70
2022-10-19T01:49:30.674Z,17.70
2022-10-19T01:52:22.774Z,17.80
2022-10-19T01:55:14.359Z,17.90
2022-10-19T01:58:09.843Z,18.00
2022-10-19T02:01:04.087Z,18.10
2022-10-19T02:03:54.970Z,18.10
2022-10-19T02:06:46.498Z,18.20
2022-10-19T02:09:35.660Z,18.20
2022-10-19T02:12:25.725Z,18.20
2022-10-19T02:15:18.850Z,18.20
2022-10-19T02:18:09.079Z,18.30
2022-10-19T02:20:59.011Z,18.20
2022-10-19T02:23:51.811Z,18.20
2022-10-19T02:26:43.692Z,18.20
2022-10-19T02:29:33.798Z,18.20
2022-10-19T02:32:22.830Z,18.20
2022-10-19T02:35:13.313Z,18.20
2022-10-19T02:38:04.993Z,18.20
2022-10-19T02:41:04.430Z,18.20
2022-10-19T02:43:57.576Z,18.20
2022-10-19T02:46:49.413Z,18.10
2022-10-19T02:49:40.259Z,18.10
2022-10-19T02:52:29.207Z,18.10
2022-10-19T02:55:18.585Z,18.20
2022-10-19T02:58:09.164Z,18.10
2022-10-19T03:00:58.382Z,17.90
2022-10-19T03:03:50.089Z,17.80
2022-10-19T03:06:39.056Z,17.90
2022-10-19T03:09:28.421Z,17.90
2022-10-19T03:12:18.196Z,18.00
2022-10-19T03:15:10.292Z,18.00
2022-10-19T03:17:59.481Z,18.10
2022-10-19T03:20:48.115Z,18.10
2022-10-19T03:23:37.684Z,17.90
2022-10-19T03:26:26.753Z,17.90
2022-10-19T03:29:16.445Z,17.90
2022-10-19T03:32:07.270Z,17.90
2022-10-19T03:34:56.435Z,17.90
2022-10-19T03:37:45.621Z,17.90
2022-10-19T03:40:34.731Z,17.70
2022-10-19T03:43:25.803Z,17.60
2022-10-19T03:49:06.356Z,17.50
2022-10-19T03:51:55.433Z,17.50
2022-10-19T03:57:33.921Z,17.30
2022-10-19T04:00:23.277Z,17.30
2022-10-19T04:03:12.626Z,17.40
2022-10-19T04:06:07.119Z,17.50
2022-10-19T04:08:56.673Z,17.50
2022-10-19T04:11:46.031Z,17.40
2022-10-19T04:14:52.518Z,17.40
2022-10-19T04:17:45.690Z,17.40
2022-10-19T04:20:42.291Z,17.30
2022-10-19T04:23:36.197Z,17.20
2022-10-19T04:26:25.436Z,17.20
2022-10-19T04:29:15.190Z,17.30
2022-10-19T04:32:04.594Z,17.30
2022-10-19T04:34:53.457Z,17.00
2022-10-19T04:37:42.767Z,16.70
2022-10-19T04:40:35.893Z,16.60
2022-10-19T04:43:24.809Z,16.50
2022-10-19T04:46:15.576Z,16.40
2022-10-19T04:49:06.822Z,16.40
2022-10-19T04:51:56.090Z,16.50
2022-10-19T04:54:45.131Z,16.50
2022-10-19T04:57:36.535Z,16.20
2022-10-19T05:00:25.991Z,16.30
2022-10-19T05:03:15.363Z,16.30
2022-10-19T05:06:04.569Z,16.40
2022-10-19T05:08:53.999Z,16.40
2022-10-19T05:11:43.420Z,16.50
2022-10-19T05:14:37.864Z,16.50
2022-10-19T05:17:33.281Z,16.40
2022-10-19T05:20:22.573Z,16.30
2022-10-19T05:23:12.142Z,16.40
2022-10-19T05:26:03.408Z,16.30
2022-10-19T05:28:56.408Z,16.40
2022-10-19T05:31:47.079Z,16.10
2022-10-19T05:34:36.142Z,16.20
2022-10-19T05:37:26.015Z,16.30
2022-10-19T05:40:15.682Z,16.40
2022-10-19T05:43:04.809Z,16.30
2022-10-19T05:45:54.128Z,16.30
2022-10-19T05:48:44.728Z,16.50
2022-10-19T05:51:34.117Z,16.30
2022-10-19T05:54:26.312Z,16.20
2022-10-19T05:57:18.670Z,16.00
2022-10-19T06:00:08.395Z,16.10
2022-10-19T06:02:59.129Z,16.10
2022-10-19T06:05:50.632Z,16.20
2022-10-19T06:08:40.072Z,16.20
2022-10-19T06:11:30.852Z,16.30
2022-10-19T06:14:20.051Z,16.30
2022-10-19T06:17:09.260Z,16.30
2022-10-19T06:19:58.341Z,16.30
2022-10-19T06:22:48.871Z,16.30
2022-10-19T06:25:38.171Z,16.30
2022-10-19T06:28:27.153Z,16.40
2022-10-19T06:31:16.415Z,16.40
2022-10-19T06:34:05.780Z,16.50
2022-10-19T06:36:55.253Z,16.40
2022-10-19T06:39:46.328Z,16.40
2022-10-19T06:42:35.410Z,16.40
2022-10-19T06:45:24.154Z,16.40
2022-10-19T06:48:13.131Z,16.50
2022-10-19T06:51:06.210Z,16.60
2022-10-19T06:59:42.295Z,16.70
2022-10-19T07:02:31.112Z,16.70
2022-10-19T07:05:20.893Z,16.80
2022-10-19T07:08:10.177Z,16.80
2022-10-19T07:11:01.794Z,17.00
2022-10-19T07:13:53.887Z,17.20
2022-10-19T07:16:43.385Z,17.30
2022-10-19T07:19:33.456Z,17.60
2022-10-19T07:22:27.848Z,17.50
2022-10-19T07:25:17.653Z,17.70
2022-10-19T07:28:06.804Z,17.70
2022-10-19T07:30:57.724Z,17.70
2022-10-19T07:36:38.192Z,17.90
2022-10-19T08:08:01.435Z,19.20
2022-10-19T08:10:50.928Z,19.30
2022-10-19T08:13:40.564Z,19.40
2022-10-19T08:16:33.117Z,19.40
2022-10-19T08:22:13.231Z,19.60
2022-10-19T08:25:02.223Z,19.70
2022-10-19T08:27:51.322Z,19.80
2022-10-19T08:53:55.541Z,20.20
2022-10-19T09:37:21.176Z,21.40
2022-10-19T09:40:18.803Z,21.40
2022-10-19T09:43:19.683Z,21.40
2022-10-19T09:46:20.302Z,21.60
2022-10-19T09:49:11.217Z,21.60
2022-10-19T09:52:00.188Z,21.80
2022-10-19T09:54:52.697Z,22.00
2022-10-19T09:57:44.508Z,22.10
2022-10-19T10:00:37.914Z,22.30
2022-10-19T10:03:30.098Z,22.30
2022-10-19T10:09:18.246Z,22.50
2022-10-19T10:12:09.031Z,22.60
2022-10-19T10:14:58.513Z,22.80
2022-10-19T10:17:50.082Z,23.00
2022-10-19T10:23:34.649Z,23.50
2022-10-19T10:26:27.270Z,23.50
2022-10-19T10:29:21.342Z,23.60
2022-10-19T10:32:15.303Z,23.60
2022-10-19T10:35:07.582Z,23.70
2022-10-19T10:38:16.022Z,23.80
2022-10-19T10:41:12.996Z,24.00
2022-10-19T10:44:04.998Z,24.10
2022-10-19T10:46:57.472Z,24.20
2022-10-19T10:49:56.203Z,24.30
2022-10-19T10:52:59.400Z,24.40
2022-10-19T10:55:57.581Z,24.50
2022-10-19T10:58:52.178Z,24.60
2022-10-19T11:01:44.064Z,24.60
2022-10-19T11:04:38.841Z,24.80
2022-10-19T11:07:30.393Z,24.90
2022-10-19T11:13:20.433Z,25.10
2022-10-19T11:16:14.947Z,25.20
2022-10-19T11:22:12.231Z,25.50
2022-10-19T11:25:21.029Z,25.50
2022-10-19T11:31:15.641Z,25.70
2022-10-19T11:34:16.145Z,25.80
2022-10-19T11:37:14.267Z,25.90
2022-10-19T11:43:05.161Z,26.10
2022-10-19T11:46:00.743Z,26.20
2022-10-19T11:49:16.728Z,26.30
2022-10-19T11:52:13.924Z,26.40
2022-10-19T11:55:09.645Z,26.60
2022-10-19T11:58:05.978Z,26.70
2022-10-19T12:04:13.307Z,26.90
2022-10-19T12:10:05.319Z,26.90
2022-10-19T12:12:59.133Z,27.10
2022-10-19T12:36:08.722Z,27.80
2022-10-19T12:39:06.159Z,27.90
2022-10-19T12:42:01.662Z,28.00
2022-10-19T12:45:09.335Z,28.00
2022-10-19T12:51:13.547Z,28.20
2022-10-19T12:54:11.038Z,28.20
2022-10-19T12:57:03.684Z,28.20
2022-10-19T13:00:02.667Z,28.20
2022-10-19T13:03:00.843Z,28.00
2022-10-19T13:05:58.709Z,28.00
2022-10-19T13:08:56.025Z,27.80
2022-10-19T13:12:21.679Z,27.70
2022-10-19T13:15:59.526Z,27.80
2022-10-19T13:19:23.782Z,27.90
2022-10-19T13:22:30.879Z,27.90
2022-10-19T13:25:28.238Z,27.90
2022-10-19T13:28:39.336Z,28.00
2022-10-19T13:31:30.665Z,28.00
2022-10-19T13:34:19.910Z,28.00
2022-10-19T13:37:18.476Z,28.00
2022-10-19T13:40:24.454Z,28.00
2022-10-19T13:43:20.487Z,28.00
2022-10-19T13:46:15.395Z,28.00
2022-10-19T13:49:27.769Z,27.90
2022-10-19T13:52:39.749Z,27.80
2022-10-19T13:55:55.905Z,27.60
2022-10-19T13:59:31.832Z,27.40
2022-10-19T14:02:47.540Z,27.20
2022-10-19T14:09:11.971Z,26.90
2022-10-19T14:12:08.916Z,26.90
2022-10-19T14:14:58.453Z,26.90
2022-10-19T14:17:47.295Z,26.90
2022-10-19T14:20:38.527Z,26.90
2022-10-19T14:23:28.793Z,26.80
2022-10-19T14:26:26.823Z,26.70
2022-10-19T14:29:16.236Z,26.70
2022-10-19T14:32:05.997Z,26.60
2022-10-19T14:34:56.419Z,26.50
2022-10-19T14:40:39.269Z,26.50
2022-10-19T14:43:31.416Z,26.20
2022-10-19T14:46:20.968Z,26.20
2022-10-19T14:49:13.880Z,26.20
2022-10-19T14:52:05.556Z,26.10
2022-10-19T17:14:17.931Z,22.10
2022-10-19T17:17:06.866Z,22.10
2022-10-19T17:19:55.614Z,22.00
2022-10-19T17:22:45.046Z,21.90
2022-10-19T17:25:33.847Z,21.80
2022-10-19T17:28:25.420Z,21.80
2022-10-19T17:31:17.931Z,21.80
2022-10-19T17:34:07.438Z,21.80
2022-10-19T17:36:57.103Z,21.80
2022-10-19T17:39:46.448Z,21.70
2022-10-19T17:42:36.731Z,21.80
2022-10-19T17:45:25.558Z,21.80
2022-10-19T17:48:16.124Z,21.70
2022-10-19T17:51:07.528Z,21.60
2022-10-19T17:54:00.566Z,21.60
2022-10-19T17:56:49.968Z,21.60
2022-10-19T17:59:52.173Z,21.60
2022-10-19T18:02:44.416Z,21.50
2022-10-19T18:05:35.303Z,21.50
2022-10-19T18:08:24.933Z,21.40
2022-10-19T18:11:16.585Z,21.40
2022-10-19T18:14:06.672Z,21.40
2022-10-19T18:16:55.957Z,21.40
2022-10-19T18:19:44.834Z,21.30
2022-10-19T18:22:35.311Z,21.30
2022-10-19T18:25:42.171Z,21.40
2022-10-19T18:28:34.415Z,21.30
2022-10-19T18:42:46.082Z,21.10
2022-10-19T20:08:01.993Z,20.40
